Goleniow, Poland
Current Conditions -  °F | °C
As of 6:30 AM on Saturday 20 Dec 2014 (Local Time) from EPSC Reporting Station
Rain Showers Rain Showers  
Wind Chill: 30°   Ceiling: 1700
Heat Index: 37°   Visibility: 5mi
Dew Point: 37°   Wind: 12mph
Humidity: 100%   Direction: 250°WSW
Pressure: 29.74"   Gusts: NA
Location:  53.57°N, 14.82°E
Report Text: EPSC 200430Z 25010KT 8000 -SHRA SCT015 BKN017CB 03/03 Q1007
Loading
Personal Weather Stations






























Interactive Weather Map New forecast layout! Learn more

10-Day Weather Forecast

Advertisements
Track Severe Weather on mobile